createdAt,value
2023-09-01T00:01:18.530Z,17.69
2023-09-01T00:03:45.585Z,17.67
2023-09-01T00:06:14.190Z,17.63
2023-09-01T00:08:42.153Z,17.54
2023-09-01T00:11:09.019Z,17.52
2023-09-01T00:13:35.974Z,17.39
2023-09-01T00:16:06.808Z,17.37
2023-09-01T00:18:34.964Z,17.44
2023-09-01T00:21:02.502Z,17.34
2023-09-01T00:23:29.509Z,17.33
2023-09-01T00:26:02.926Z,17.27
2023-09-01T00:28:29.999Z,17.31
2023-09-01T00:30:58.062Z,17.24
2023-09-01T00:33:28.153Z,17.26
2023-09-01T00:35:56.362Z,17.15
2023-09-01T00:38:26.184Z,17.13
2023-09-01T00:40:54.007Z,17.08
2023-09-01T00:43:20.872Z,17.02
2023-09-01T00:45:48.380Z,16.98
2023-09-01T00:48:15.690Z,16.91
2023-09-01T00:50:44.319Z,16.86
2023-09-01T00:53:11.257Z,16.85
2023-09-01T00:55:38.795Z,16.82
2023-09-01T00:58:06.665Z,16.86
2023-09-01T01:00:34.147Z,16.95
2023-09-01T01:03:09.220Z,16.75
2023-09-01T01:05:55.931Z,16.72
2023-09-01T01:08:25.640Z,16.63
2023-09-01T01:11:17.722Z,16.66
2023-09-01T01:13:56.497Z,16.54
2023-09-01T01:16:25.420Z,16.53
2023-09-01T01:18:54.382Z,16.48
2023-09-01T01:21:25.857Z,16.43
2023-09-01T01:23:54.050Z,16.45
2023-09-01T01:26:22.063Z,16.37
2023-09-01T01:28:48.988Z,16.34
2023-09-01T01:31:15.901Z,16.39
2023-09-01T01:33:53.863Z,16.34
2023-09-01T01:36:50.567Z,16.25
2023-09-01T01:39:22.438Z,16.22
2023-09-01T01:41:57.856Z,16.23
2023-09-01T01:44:38.114Z,16.17
2023-09-01T01:47:06.380Z,16.10
2023-09-01T01:49:33.402Z,16.03
2023-09-01T01:52:01.694Z,16.00
2023-09-01T01:54:30.846Z,15.92
2023-09-01T01:56:58.234Z,16.01
2023-09-01T01:59:24.993Z,15.93
2023-09-01T02:01:52.093Z,15.93
2023-09-01T02:04:18.927Z,15.92
2023-09-01T02:06:45.777Z,15.87
2023-09-01T02:09:15.408Z,15.81
2023-09-01T02:11:42.540Z,15.86
2023-09-01T02:14:09.376Z,15.88
2023-09-01T02:16:36.433Z,15.85
2023-09-01T02:19:03.242Z,15.74
2023-09-01T02:21:30.025Z,15.73
2023-09-01T02:24:00.000Z,15.77
2023-09-01T02:26:30.292Z,15.65
2023-09-01T02:28:57.073Z,15.57
2023-09-01T02:31:26.373Z,15.55
2023-09-01T02:33:53.204Z,15.52
2023-09-01T02:36:30.653Z,15.56
2023-09-01T02:38:58.502Z,15.56
2023-09-01T02:41:25.629Z,15.49
2023-09-01T02:43:53.377Z,15.45
2023-09-01T02:46:21.524Z,15.38
2023-09-01T02:48:48.860Z,15.40
2023-09-01T02:51:19.059Z,15.42
2023-09-01T02:53:46.144Z,15.45
2023-09-01T02:56:13.187Z,15.40
2023-09-01T02:58:40.515Z,15.29
2023-09-01T03:01:09.762Z,15.27
2023-09-01T03:03:42.028Z,15.22
2023-09-01T03:06:12.453Z,15.22
2023-09-01T03:08:40.042Z,15.19
2023-09-01T03:11:07.199Z,15.17
2023-09-01T03:13:34.611Z,15.14
2023-09-01T03:16:01.906Z,15.12
2023-09-01T03:18:29.117Z,15.11
2023-09-01T03:20:57.739Z,15.15
2023-09-01T03:23:24.766Z,15.05
2023-09-01T03:25:56.259Z,15.06
2023-09-01T03:28:23.127Z,14.98
2023-09-01T03:30:50.298Z,14.95
2023-09-01T03:33:17.500Z,14.98
2023-09-01T03:35:45.150Z,14.93
2023-09-01T03:38:12.627Z,14.88
2023-09-01T03:40:39.653Z,14.84
2023-09-01T03:43:10.088Z,14.78
2023-09-01T03:45:37.079Z,14.80
2023-09-01T03:48:04.482Z,14.78
2023-09-01T03:50:35.600Z,14.79
2023-09-01T03:53:02.809Z,14.77
2023-09-01T03:55:29.639Z,14.66
2023-09-01T03:57:56.434Z,14.70
2023-09-01T04:00:23.623Z,14.68
2023-09-01T04:02:50.407Z,14.67
2023-09-01T04:05:17.414Z,14.67
2023-09-01T04:07:44.283Z,14.70
2023-09-01T04:10:11.375Z,14.69
2023-09-01T04:12:38.130Z,14.75
2023-09-01T04:15:07.953Z,14.70
2023-09-01T04:17:34.909Z,14.80
2023-09-01T04:20:01.698Z,14.75
2023-09-01T04:22:29.113Z,14.76
2023-09-01T04:24:55.912Z,14.83
2023-09-01T04:27:24.233Z,14.92
2023-09-01T04:30:03.718Z,14.85
2023-09-01T04:32:34.971Z,14.87
2023-09-01T04:35:01.826Z,14.90
2023-09-01T04:37:28.541Z,14.88
2023-09-01T04:39:55.328Z,14.90
2023-09-01T04:42:22.132Z,14.97
2023-09-01T04:44:49.069Z,15.01
2023-09-01T04:47:15.810Z,15.04
2023-09-01T04:49:42.493Z,15.09
2023-09-01T04:52:09.213Z,15.16
2023-09-01T04:54:35.950Z,15.29
2023-09-01T04:57:03.366Z,15.35
2023-09-01T04:59:31.234Z,15.38
2023-09-01T05:01:59.123Z,15.48
2023-09-01T05:04:25.898Z,15.54
2023-09-01T05:06:54.155Z,15.60
2023-09-01T05:09:21.112Z,15.82
2023-09-01T05:11:48.059Z,16.01
2023-09-01T05:14:14.881Z,16.28
2023-09-01T05:16:42.300Z,16.53
2023-09-01T05:19:09.099Z,16.80
2023-09-01T05:21:35.809Z,17.18
2023-09-01T05:24:02.702Z,17.53
2023-09-01T05:26:29.471Z,17.84
2023-09-01T05:28:56.396Z,18.14
2023-09-01T05:31:23.194Z,18.45
2023-09-01T05:33:50.089Z,18.71
2023-09-01T05:36:16.967Z,19.00
2023-09-01T05:38:43.744Z,19.30
2023-09-01T05:41:14.234Z,19.65
2023-09-01T05:43:41.397Z,19.87
2023-09-01T05:46:08.355Z,20.12
2023-09-01T05:48:37.484Z,20.26
2023-09-01T05:51:04.516Z,20.44
2023-09-01T05:53:33.968Z,20.59
2023-09-01T05:56:00.930Z,20.80
2023-09-01T05:58:27.671Z,21.06
2023-09-01T06:00:54.464Z,21.17
2023-09-01T06:03:21.290Z,21.34
2023-09-01T06:05:48.069Z,21.52
2023-09-01T06:08:15.075Z,21.76
2023-09-01T06:10:42.007Z,21.90
2023-09-01T06:13:08.765Z,22.02
2023-09-01T06:15:35.454Z,22.22
2023-09-01T06:18:02.484Z,22.41
2023-09-01T06:20:29.683Z,22.59
2023-09-01T06:22:57.507Z,22.66
2023-09-01T06:25:24.433Z,22.90
2023-09-01T06:27:51.159Z,22.98
2023-09-01T06:30:18.305Z,23.15
2023-09-01T06:32:48.247Z,23.35
2023-09-01T06:35:16.356Z,23.48
2023-09-01T06:37:43.340Z,23.54
2023-09-01T06:40:10.760Z,23.67
2023-09-01T06:42:37.500Z,23.60
2023-09-01T06:45:05.129Z,23.75
2023-09-01T06:47:31.731Z,23.91
2023-09-01T06:49:58.493Z,24.06
2023-09-01T06:52:25.229Z,24.25
2023-09-01T06:54:52.334Z,24.45
2023-09-01T06:57:19.142Z,24.67
2023-09-01T06:59:45.859Z,24.66
2023-09-01T07:02:12.648Z,24.76
2023-09-01T07:04:39.538Z,24.98
2023-09-01T07:07:06.390Z,24.94
2023-09-01T07:09:33.324Z,24.97
2023-09-01T07:12:00.228Z,25.00
2023-09-01T07:14:27.320Z,25.08
2023-09-01T07:16:54.207Z,25.22
2023-09-01T07:19:21.205Z,25.36
2023-09-01T07:21:47.948Z,25.42
2023-09-01T07:24:14.738Z,25.33
2023-09-01T07:26:41.529Z,25.42
2023-09-01T07:29:08.903Z,25.47
2023-09-01T07:31:35.866Z,25.70
2023-09-01T07:34:02.665Z,25.63
2023-09-01T07:36:30.754Z,25.80
2023-09-01T07:38:57.553Z,26.19
2023-09-01T07:41:24.277Z,26.39
2023-09-01T07:43:51.307Z,26.51
2023-09-01T07:46:18.245Z,26.76
2023-09-01T07:48:45.041Z,26.89
2023-09-01T07:51:12.079Z,26.96
2023-09-01T07:53:39.847Z,26.98
2023-09-01T07:56:06.845Z,27.03
2023-09-01T07:58:33.605Z,27.04
2023-09-01T08:01:00.493Z,27.04
2023-09-01T08:03:27.804Z,27.16
2023-09-01T08:05:55.132Z,27.35
2023-09-01T08:08:22.282Z,27.39
2023-09-01T08:10:49.052Z,27.23
2023-09-01T08:13:16.048Z,27.14
2023-09-01T08:15:42.886Z,27.27
2023-09-01T08:18:09.972Z,27.25
2023-09-01T08:20:37.251Z,27.36
2023-09-01T08:23:04.216Z,27.55
2023-09-01T08:25:31.807Z,27.62
2023-09-01T08:27:58.586Z,27.75
2023-09-01T08:30:25.494Z,27.91
2023-09-01T08:32:52.184Z,27.81
2023-09-01T08:35:19.282Z,27.69
2023-09-01T08:37:46.299Z,27.80
2023-09-01T08:40:13.439Z,28.09
2023-09-01T08:42:50.794Z,28.30
2023-09-01T08:45:20.503Z,28.39
2023-09-01T08:47:50.018Z,28.29
2023-09-01T08:50:18.742Z,28.45
2023-09-01T08:52:47.416Z,28.59
2023-09-01T08:55:15.209Z,28.83
2023-09-01T08:57:42.195Z,28.73
2023-09-01T09:00:13.311Z,28.62
2023-09-01T09:03:01.129Z,28.67
2023-09-01T09:05:34.985Z,28.63
2023-09-01T09:08:06.502Z,28.55
2023-09-01T09:10:39.335Z,28.58
2023-09-01T09:13:28.478Z,28.72
2023-09-01T09:16:07.903Z,28.64
2023-09-01T09:18:35.548Z,28.68
2023-09-01T09:21:03.211Z,28.70
2023-09-01T09:24:11.181Z,28.83
2023-09-01T09:26:42.899Z,28.91
2023-09-01T09:29:12.692Z,29.05
2023-09-01T09:31:45.706Z,29.01
2023-09-01T09:34:25.947Z,28.89
2023-09-01T09:36:52.588Z,29.03
2023-09-01T09:39:27.809Z,29.08
2023-09-01T09:41:56.031Z,29.22
2023-09-01T09:44:32.435Z,29.29
2023-09-01T09:46:59.334Z,29.28
2023-09-01T09:49:27.096Z,29.34
2023-09-01T09:51:55.007Z,29.40
2023-09-01T09:54:23.831Z,29.50
2023-09-01T09:56:52.646Z,29.55
2023-09-01T09:59:34.292Z,29.47
2023-09-01T10:02:13.360Z,29.27
2023-09-01T10:04:40.995Z,29.30
2023-09-01T10:07:08.273Z,29.36
2023-09-01T10:09:35.043Z,29.40
2023-09-01T10:12:02.749Z,29.26
2023-09-01T10:14:31.124Z,29.43
2023-09-01T10:16:59.691Z,29.55
2023-09-01T10:19:27.450Z,29.69
2023-09-01T10:21:54.162Z,29.86
2023-09-01T10:24:21.092Z,29.87
2023-09-01T10:27:08.277Z,29.89
2023-09-01T10:29:36.099Z,29.87
2023-09-01T10:32:19.550Z,29.94
2023-09-01T10:34:53.777Z,29.99
2023-09-01T10:37:31.905Z,30.15
2023-09-01T10:39:59.132Z,30.23
2023-09-01T10:42:45.461Z,30.32
2023-09-01T10:45:13.321Z,30.36
2023-09-01T10:47:43.557Z,30.41
2023-09-01T10:50:13.550Z,30.55
2023-09-01T10:52:43.367Z,30.62
2023-09-01T10:55:10.532Z,30.29
2023-09-01T10:57:41.353Z,29.43
2023-09-01T11:00:32.614Z,29.10
2023-09-01T11:03:34.660Z,29.24
2023-09-01T11:06:07.594Z,29.51
2023-09-01T11:08:34.475Z,29.66
2023-09-01T11:11:11.270Z,29.81
2023-09-01T11:13:38.105Z,29.93
2023-09-01T11:16:09.475Z,30.08
2023-09-01T11:18:36.457Z,29.96
2023-09-01T11:21:04.206Z,29.79
2023-09-01T11:23:31.108Z,29.74
2023-09-01T11:26:02.269Z,29.83
2023-09-01T11:28:30.165Z,29.95
2023-09-01T11:31:05.011Z,29.96
2023-09-01T11:33:38.049Z,30.06
2023-09-01T11:36:12.993Z,30.12
2023-09-01T11:38:45.461Z,30.16
2023-09-01T11:41:19.983Z,30.37
2023-09-01T11:43:47.586Z,30.22
2023-09-01T11:46:15.240Z,30.14
2023-09-01T11:48:42.278Z,30.03
2023-09-01T11:51:10.473Z,29.98
2023-09-01T11:53:38.188Z,30.00
2023-09-01T11:56:23.626Z,29.91
2023-09-01T11:58:52.282Z,29.81
2023-09-01T12:01:21.117Z,29.85
2023-09-01T12:03:52.381Z,29.54
2023-09-01T12:06:20.120Z,29.55
2023-09-01T12:08:48.049Z,29.45
2023-09-01T12:11:15.672Z,29.53
2023-09-01T12:13:45.722Z,29.76
2023-09-01T12:16:24.479Z,29.48
2023-09-01T12:18:53.217Z,29.54
2023-09-01T12:21:20.327Z,29.65
2023-09-01T12:23:48.071Z,29.69
2023-09-01T12:26:16.756Z,29.76
2023-09-01T12:28:44.692Z,29.79
2023-09-01T12:31:13.110Z,29.83
2023-09-01T12:33:41.616Z,29.86
2023-09-01T12:36:08.761Z,29.85
2023-09-01T12:38:36.132Z,29.71
2023-09-01T12:41:03.380Z,29.69
2023-09-01T12:43:30.506Z,29.70
2023-09-01T12:45:58.687Z,29.68
2023-09-01T12:48:25.580Z,29.65
2023-09-01T12:50:52.441Z,29.65
2023-09-01T12:53:19.902Z,29.70
2023-09-01T12:55:48.855Z,29.78
2023-09-01T12:58:16.191Z,29.74
2023-09-01T13:00:44.657Z,29.45
2023-09-01T13:03:11.901Z,29.28
2023-09-01T13:05:38.831Z,29.26
2023-09-01T13:08:05.824Z,29.32
2023-09-01T13:10:32.763Z,29.42
2023-09-01T13:13:00.509Z,29.48
2023-09-01T13:15:27.276Z,29.53
2023-09-01T13:17:54.310Z,29.49
2023-09-01T13:20:21.456Z,29.43
2023-09-01T13:22:49.880Z,29.49
2023-09-01T13:25:16.945Z,29.63
2023-09-01T13:27:43.814Z,29.69
2023-09-01T13:30:10.785Z,29.76
2023-09-01T13:32:37.543Z,29.88
2023-09-01T13:35:04.680Z,29.90
2023-09-01T13:37:31.492Z,29.96
2023-09-01T13:39:59.682Z,30.01
2023-09-01T13:42:29.828Z,30.07
2023-09-01T13:44:57.988Z,30.02
2023-09-01T13:47:25.820Z,29.92
2023-09-01T13:49:53.557Z,29.86
2023-09-01T13:52:21.552Z,29.78
2023-09-01T13:54:50.539Z,29.71
2023-09-01T13:57:17.877Z,29.59
2023-09-01T13:59:44.895Z,29.54
2023-09-01T14:02:11.760Z,29.55
2023-09-01T14:04:38.490Z,29.56
2023-09-01T14:07:05.757Z,29.65
2023-09-01T14:09:32.597Z,29.72
2023-09-01T14:11:59.813Z,29.69
2023-09-01T14:14:26.590Z,29.62
2023-09-01T14:16:53.580Z,29.45
2023-09-01T14:19:20.381Z,29.36
2023-09-01T14:21:47.415Z,29.27
2023-09-01T14:24:14.321Z,29.36
2023-09-01T14:26:42.377Z,29.30
2023-09-01T14:29:09.564Z,29.27
2023-09-01T14:31:36.170Z,29.36
2023-09-01T14:34:03.327Z,29.20
2023-09-01T14:36:30.068Z,29.10
2023-09-01T14:38:57.169Z,29.16
2023-09-01T14:41:27.384Z,29.11
2023-09-01T14:43:54.428Z,29.14
2023-09-01T14:46:23.222Z,29.14
2023-09-01T14:48:50.199Z,29.02
2023-09-01T14:51:18.176Z,28.91
2023-09-01T14:53:48.399Z,28.87
2023-09-01T14:56:16.012Z,28.76
2023-09-01T14:58:43.047Z,28.57
2023-09-01T15:01:09.769Z,28.49
2023-09-01T15:03:36.628Z,28.46
2023-09-01T15:06:03.642Z,28.36
2023-09-01T15:08:30.433Z,28.22
2023-09-01T15:11:02.858Z,28.12
2023-09-01T15:13:30.001Z,28.05
2023-09-01T15:15:56.817Z,28.05
2023-09-01T15:18:23.694Z,28.16
2023-09-01T15:21:10.567Z,28.15
2023-09-01T15:23:39.755Z,28.04
2023-09-01T15:26:10.371Z,28.05
2023-09-01T15:28:37.454Z,28.06
2023-09-01T15:31:08.131Z,28.16
2023-09-01T15:33:35.072Z,28.13
2023-09-01T15:36:02.278Z,28.12
2023-09-01T15:38:30.915Z,28.21
2023-09-01T15:41:01.601Z,28.28
2023-09-01T15:43:28.707Z,28.47
2023-09-01T15:45:58.989Z,28.53
2023-09-01T15:48:26.223Z,28.41
2023-09-01T15:50:57.495Z,28.13
2023-09-01T15:53:25.058Z,27.95
2023-09-01T15:55:54.542Z,27.71
2023-09-01T15:58:21.638Z,27.55
2023-09-01T16:00:53.556Z,27.32
2023-09-01T16:03:26.625Z,27.04
2023-09-01T16:06:01.333Z,26.84
2023-09-01T16:08:28.155Z,26.61
2023-09-01T16:10:55.063Z,26.44
2023-09-01T16:13:21.935Z,26.24
2023-09-01T16:15:49.846Z,26.03
2023-09-01T16:18:18.523Z,25.83
2023-09-01T16:20:45.252Z,25.62
2023-09-01T16:23:12.104Z,25.40
2023-09-01T16:25:39.191Z,25.21
2023-09-01T16:28:06.060Z,25.02
2023-09-01T16:30:36.706Z,24.80
2023-09-01T16:33:04.571Z,24.61
2023-09-01T16:35:31.410Z,24.46
2023-09-01T16:37:58.436Z,24.28
2023-09-01T16:40:25.940Z,24.11
2023-09-01T16:42:54.577Z,23.97
2023-09-01T16:45:21.932Z,23.78
2023-09-01T16:47:49.199Z,23.66
2023-09-01T16:50:17.172Z,23.48
2023-09-01T16:52:44.164Z,23.34
2023-09-01T16:55:11.221Z,23.19
2023-09-01T16:57:38.172Z,23.02
2023-09-01T17:00:06.226Z,22.86
2023-09-01T17:02:33.126Z,22.72
2023-09-01T17:05:00.066Z,22.60
2023-09-01T17:07:26.931Z,22.42
2023-09-01T17:10:08.007Z,22.27
2023-09-01T17:12:35.322Z,22.13
2023-09-01T17:15:03.222Z,22.04
2023-09-01T17:17:30.363Z,21.90
2023-09-01T17:19:57.341Z,21.72
2023-09-01T17:22:24.301Z,21.61
2023-09-01T17:24:51.067Z,21.51
2023-09-01T17:27:18.113Z,21.37
2023-09-01T17:29:44.992Z,21.26
2023-09-01T17:32:11.910Z,21.16
2023-09-01T17:34:38.735Z,21.04
2023-09-01T17:37:05.864Z,20.93
2023-09-01T17:39:32.962Z,20.81
2023-09-01T17:42:00.185Z,20.70
2023-09-01T17:44:27.051Z,20.59
2023-09-01T17:46:53.787Z,20.48
2023-09-01T17:49:20.611Z,20.39
2023-09-01T17:51:47.567Z,20.30
2023-09-01T17:54:14.528Z,20.22
2023-09-01T17:56:41.688Z,20.17
2023-09-01T17:59:08.452Z,20.07
2023-09-01T18:01:35.559Z,19.98
2023-09-01T18:04:02.862Z,19.97
2023-09-01T18:06:31.706Z,19.83
2023-09-01T18:09:00.859Z,19.72
2023-09-01T18:11:27.758Z,19.67
2023-09-01T18:13:54.826Z,19.56
2023-09-01T18:16:21.721Z,19.50
2023-09-01T18:18:49.000Z,19.40
2023-09-01T18:21:15.775Z,19.37
2023-09-01T18:23:42.752Z,19.37
2023-09-01T18:26:14.082Z,19.32
2023-09-01T18:28:46.368Z,19.22
2023-09-01T18:31:23.417Z,19.15
2023-09-01T18:33:53.132Z,19.10
2023-09-01T18:36:26.784Z,19.01
2023-09-01T18:38:56.319Z,18.97
2023-09-01T18:41:24.113Z,18.90
2023-09-01T18:44:00.159Z,18.82
2023-09-01T18:46:31.854Z,18.75
2023-09-01T18:49:04.408Z,18.71
2023-09-01T18:51:35.085Z,18.63
2023-09-01T18:54:20.657Z,18.59
2023-09-01T18:56:49.616Z,18.48
2023-09-01T18:59:21.317Z,18.43
2023-09-01T19:01:48.619Z,18.42
2023-09-01T19:04:16.040Z,18.46
2023-09-01T19:06:43.487Z,18.33
2023-09-01T19:09:14.590Z,18.23
2023-09-01T19:11:44.140Z,18.20
2023-09-01T19:14:11.148Z,18.10
2023-09-01T19:16:39.857Z,18.03
2023-09-01T19:19:08.060Z,17.99
2023-09-01T19:21:35.031Z,17.90
2023-09-01T19:24:02.088Z,17.85
2023-09-01T19:26:30.383Z,17.81
2023-09-01T19:29:01.385Z,17.76
2023-09-01T19:31:29.851Z,17.73
2023-09-01T19:34:01.690Z,17.71
2023-09-01T19:36:30.759Z,17.63
2023-09-01T19:39:00.710Z,17.60
2023-09-01T19:41:29.347Z,17.59
2023-09-01T19:43:57.607Z,17.52
2023-09-01T19:46:25.234Z,17.51
2023-09-01T19:48:55.137Z,17.49
2023-09-01T19:51:22.203Z,17.44
2023-09-01T19:53:49.166Z,17.42
2023-09-01T19:56:18.604Z,17.32
2023-09-01T19:58:54.352Z,17.28
2023-09-01T20:01:26.548Z,17.23
2023-09-01T20:03:54.066Z,17.21
2023-09-01T20:06:28.659Z,17.19
2023-09-01T20:09:02.605Z,17.14
2023-09-01T20:11:29.898Z,17.13
2023-09-01T20:13:56.886Z,17.07
2023-09-01T20:16:27.947Z,17.05
2023-09-01T20:18:55.123Z,17.01
2023-09-01T20:21:22.992Z,17.02
2023-09-01T20:23:50.722Z,17.01
2023-09-01T20:26:17.582Z,16.92
2023-09-01T20:28:44.518Z,16.82
2023-09-01T20:31:12.763Z,16.81
2023-09-01T20:33:39.553Z,16.81
2023-09-01T20:36:06.781Z,16.84
2023-09-01T20:38:33.916Z,16.78
2023-09-01T20:41:00.958Z,16.72
2023-09-01T20:43:28.100Z,16.68
2023-09-01T20:45:56.727Z,16.66
2023-09-01T20:48:23.862Z,16.64
2023-09-01T20:50:50.752Z,16.66
2023-09-01T20:53:18.366Z,16.59
2023-09-01T20:55:45.750Z,16.56
2023-09-01T20:58:12.738Z,16.54
2023-09-01T21:00:40.617Z,16.57
2023-09-01T21:03:07.736Z,16.58
2023-09-01T21:05:34.675Z,16.48
2023-09-01T21:08:01.598Z,16.48
2023-09-01T21:10:28.727Z,16.44
2023-09-01T21:12:55.737Z,16.39
2023-09-01T21:15:22.890Z,16.35
2023-09-01T21:17:49.639Z,16.26
2023-09-01T21:20:16.483Z,16.26
2023-09-01T21:22:43.272Z,16.21
2023-09-01T21:25:10.270Z,16.21
2023-09-01T21:27:37.262Z,16.21
2023-09-01T21:30:18.055Z,16.18
2023-09-01T21:32:45.837Z,16.17
2023-09-01T21:35:12.829Z,16.17
2023-09-01T21:37:40.377Z,16.04
2023-09-01T21:40:09.116Z,16.06
2023-09-01T21:42:37.292Z,16.05
2023-09-01T21:45:05.395Z,16.00
2023-09-01T21:47:36.205Z,16.00
2023-09-01T21:50:03.626Z,15.93
2023-09-01T21:52:30.813Z,16.00
2023-09-01T21:54:57.686Z,15.96
2023-09-01T21:57:27.123Z,15.89
2023-09-01T21:59:54.221Z,15.89
2023-09-01T22:02:21.288Z,15.90
2023-09-01T22:04:51.068Z,15.83
2023-09-01T22:07:19.177Z,15.80
2023-09-01T22:09:45.964Z,15.80
2023-09-01T22:12:12.913Z,15.79
2023-09-01T22:14:39.781Z,15.71
2023-09-01T22:17:06.720Z,15.70
2023-09-01T22:19:33.620Z,15.65
2023-09-01T22:22:01.001Z,15.66
2023-09-01T22:24:32.546Z,15.67
2023-09-01T22:27:00.297Z,15.60
2023-09-01T22:29:28.353Z,15.60
2023-09-01T22:31:57.663Z,15.52
2023-09-01T22:34:24.620Z,15.52
2023-09-01T22:36:51.687Z,15.55
2023-09-01T22:39:18.927Z,15.54
2023-09-01T22:41:52.352Z,15.49
2023-09-01T22:44:19.313Z,15.47
2023-09-01T22:46:46.337Z,15.46
2023-09-01T22:49:13.520Z,15.40
2023-09-01T22:51:40.635Z,15.35
2023-09-01T22:54:08.120Z,15.35
2023-09-01T22:56:35.241Z,15.32
2023-09-01T22:59:02.137Z,15.33
2023-09-01T23:01:28.920Z,15.28
2023-09-01T23:03:56.191Z,15.28
2023-09-01T23:06:22.985Z,15.36
2023-09-01T23:08:49.779Z,15.32
2023-09-01T23:11:17.639Z,15.26
2023-09-01T23:13:44.288Z,15.27
2023-09-01T23:16:14.180Z,15.23
2023-09-01T23:18:40.960Z,15.21
2023-09-01T23:21:07.907Z,15.16
2023-09-01T23:23:34.812Z,15.18
2023-09-01T23:26:02.028Z,15.17
2023-09-01T23:28:31.596Z,15.19
2023-09-01T23:30:58.677Z,15.12
2023-09-01T23:33:25.895Z,15.13
2023-09-01T23:35:54.067Z,15.08
2023-09-01T23:38:20.800Z,15.09
2023-09-01T23:40:47.891Z,15.09
2023-09-01T23:43:15.438Z,15.07
2023-09-01T23:45:42.525Z,15.04
2023-09-01T23:48:09.426Z,15.03
2023-09-01T23:50:36.427Z,14.99
2023-09-01T23:53:03.657Z,14.94
2023-09-01T23:55:31.148Z,15.04
2023-09-01T23:57:57.899Z,15.03
